Time;durP1;ratioP1;P1;durP2;ratioP2;P2;SDS_P1;SDS_P2;PMS_P1;PMS_P2;Temp;Humidity;BMP_temperature;BMP_pressure;BME280_temperature;BME280_humidity;BME280_pressure;Samples;Min_cycle;Max_cycle;Signal;HPM_P1;HPM_P2
2023/03/30 00:00:34;;;;;;;0.10;0.10;;;4.60;99.90;;;;;;5023449;28;20084;-75
2023/03/30 00:03:01;;;;;;;0.20;0.20;;;4.60;99.90;;;;;;5022748;28;20018;-75
2023/03/30 00:05:28;;;;;;;0.13;0.13;;;4.30;99.90;;;;;;5022980;28;20038;-75
2023/03/30 00:07:54;;;;;;;0.20;0.20;;;4.60;99.90;;;;;;5003859;28;20041;-75
2023/03/30 00:10:20;;;;;;;0.10;0.10;;;4.60;99.90;;;;;;5021927;28;20037;-75
2023/03/30 00:12:49;;;;;;;0.20;0.20;;;4.60;99.90;;;;;;5022081;28;20030;-75
2023/03/30 00:15:16;;;;;;;0.20;0.20;;;4.50;99.90;;;;;;5022652;28;20770;-75
2023/03/30 00:17:43;;;;;;;0.17;0.17;;;4.50;99.90;;;;;;5027255;28;20595;-75
2023/03/30 00:20:10;;;;;;;10.00;9.43;;;4.60;99.90;;;;;;5028389;28;20460;-75
2023/03/30 00:22:45;;;;;;;0.13;0.13;;;4.50;99.90;;;;;;5010120;28;20025;-75
2023/03/30 00:25:14;;;;;;;11.38;7.13;;;4.50;99.90;;;;;;5030168;28;20017;-75
2023/03/30 00:27:43;;;;;;;0.35;0.35;;;4.30;99.90;;;;;;5033126;28;20555;-76
2023/03/30 00:30:14;;;;;;;0.20;0.20;;;4.20;99.90;;;;;;5032269;28;20025;-75
2023/03/30 00:32:41;;;;;;;0.20;0.20;;;4.30;99.90;;;;;;5013899;28;20583;-76
2023/03/30 00:35:07;;;;;;;0.10;0.10;;;4.70;99.90;;;;;;5031037;28;20018;-75
2023/03/30 00:37:36;;;;;;;0.17;0.17;;;4.50;99.90;;;;;;5028248;28;20151;-75
2023/03/30 00:40:12;;;;;;;0.20;0.20;;;4.30;99.90;;;;;;5028592;28;20082;-76
2023/03/30 00:42:38;;;;;;;0.10;0.10;;;;;;;;;;5031187;28;20701;-75
2023/03/30 00:45:13;;;;;;;0.10;0.10;;;4.10;99.90;;;;;;5009385;28;20033;-76
2023/03/30 00:48:07;;;;;;;0.10;0.10;;;4.10;99.90;;;;;;5025819;28;20585;-76
2023/03/30 00:50:41;;;;;;;0.20;0.20;;;3.90;99.90;;;;;;4963160;28;20121;-79
2023/03/30 00:53:17;;;;;;;13.57;12.55;;;3.80;99.90;;;;;;4963746;28;20157;-78
2023/03/30 00:55:46;;;;;;;0.20;0.20;;;3.80;99.90;;;;;;4961508;28;20698;-76
2023/03/30 00:58:16;;;;;;;0.10;0.10;;;3.70;99.90;;;;;;4965641;28;20027;-77
2023/03/30 01:00:45;;;;;;;0.10;0.10;;;3.70;99.90;;;;;;4964030;28;20026;-79
2023/03/30 01:03:36;;;;;;;0.20;0.20;;;3.60;99.90;;;;;;4965473;28;20308;-75
2023/03/30 01:06:06;;;;;;;2.35;2.25;;;3.70;99.90;;;;;;4971119;28;20037;-75
2023/03/30 01:08:33;;;;;;;0.10;0.10;;;3.50;99.90;;;;;;4970820;28;20041;-76
2023/03/30 01:11:00;;;;;;;0.20;0.20;;;3.50;99.90;;;;;;4967601;28;20035;-75
2023/03/30 01:13:28;;;;;;;0.20;0.20;;;3.50;99.90;;;;;;4967136;28;20015;-75
2023/03/30 01:16:31;;;;;;;0.15;0.15;;;3.60;99.90;;;;;;4970636;28;20051;-75
2023/03/30 01:19:28;;;;;;;0.20;0.20;;;3.50;99.90;;;;;;4968608;28;20029;-76
2023/03/30 01:22:11;;;;;;;0.17;0.17;;;3.60;99.90;;;;;;4965876;28;20770;-76
2023/03/30 01:25:01;;;;;;;0.53;0.53;;;3.60;99.90;;;;;;4967128;28;20738;-75
2023/03/30 01:27:49;;;;;;;0.20;0.20;;;3.60;99.90;;;;;;4996660;28;20045;-75
2023/03/30 01:30:46;;;;;;;0.20;0.20;;;3.50;99.90;;;;;;5032725;28;20026;-75
2023/03/30 01:33:30;;;;;;;0.20;0.20;;;3.60;99.90;;;;;;5031244;28;20083;-75
2023/03/30 01:36:20;;;;;;;0.20;0.20;;;3.50;99.90;;;;;;5030415;28;20017;-75
2023/03/30 01:39:32;;;;;;;0.20;0.20;;;4.10;99.90;;;;;;5026451;28;20017;-75
2023/03/30 01:42:09;;;;;;;0.20;0.20;;;3.40;99.90;;;;;;4961017;28;20300;-75
2023/03/30 01:44:42;;;;;;;0.17;0.17;;;3.40;99.90;;;;;;4961376;28;20035;-75
2023/03/30 01:47:18;;;;;;;0.30;0.30;;;3.40;99.90;;;;;;4962424;28;20042;-75
2023/03/30 01:50:07;;;;;;;0.10;0.10;;;3.50;99.90;;;;;;4961385;28;20039;-75
2023/03/30 01:53:07;;;;;;;0.20;0.20;;;3.50;99.90;;;;;;4956351;28;20035;-75
2023/03/30 01:56:11;;;;;;;0.20;0.20;;;3.40;99.90;;;;;;4946083;28;20260;-75
2023/03/30 01:59:10;;;;;;;0.20;0.20;;;3.40;99.90;;;;;;4907501;29;20036;-75
2023/03/30 02:01:38;;;;;;;0.20;0.20;;;3.40;99.90;;;;;;4854686;29;20041;-75
2023/03/30 02:04:08;;;;;;;0.17;0.17;;;3.40;99.90;;;;;;4852911;29;20033;-75
2023/03/30 02:06:42;;;;;;;0.20;0.20;;;3.40;99.90;;;;;;4851936;29;20030;-75
2023/03/30 02:09:10;;;;;;;;;;;3.40;99.90;;;;;;4851825;29;20220;-75
2023/03/30 02:11:40;;;;;;;0.13;0.13;;;3.30;99.90;;;;;;4852966;29;20103;-76
2023/03/30 02:14:08;;;;;;;0.20;0.20;;;3.30;99.90;;;;;;4857031;29;20536;-77
2023/03/30 02:16:41;;;;;;;0.10;0.10;;;3.00;99.90;;;;;;4887482;29;20045;-75
2023/03/30 02:19:07;;;;;;;0.20;0.20;;;3.20;99.90;;;;;;4882920;29;20017;-75
2023/03/30 02:21:34;;;;;;;0.10;0.10;;;3.20;99.90;;;;;;4897129;29;20035;-75
2023/03/30 02:24:02;;;;;;;1.30;1.27;;;3.10;99.90;;;;;;4882034;29;20029;-75
2023/03/30 02:26:29;;;;;;;0.10;0.10;;;3.20;99.90;;;;;;4898208;29;20033;-75
2023/03/30 02:28:55;;;;;;;0.20;0.20;;;3.20;99.90;;;;;;4898707;29;20040;-75
2023/03/30 02:31:21;;;;;;;0.20;0.20;;;3.20;99.90;;;;;;4898327;29;20033;-74
2023/03/30 02:34:01;;;;;;;4.88;4.68;;;3.10;99.90;;;;;;4900152;29;20048;-75
2023/03/30 02:37:09;;;;;;;0.20;0.20;;;3.10;99.90;;;;;;4957649;28;20034;-75
2023/03/30 02:40:12;;;;;;;0.20;0.20;;;3.10;99.90;;;;;;4917099;29;20068;-75
2023/03/30 02:43:16;;;;;;;0.20;0.20;;;3.10;99.90;;;;;;4910195;29;20035;-74
2023/03/30 02:45:51;;;;;;;0.20;0.20;;;3.10;99.90;;;;;;4868188;29;20184;-74
2023/03/30 02:48:45;;;;;;;5.68;5.45;;;3.00;99.90;;;;;;4868587;29;20140;-76
2023/03/30 02:51:19;;;;;;;0.20;0.20;;;3.10;99.90;;;;;;4848730;29;20037;-75
2023/03/30 02:54:00;;;;;;;0.20;0.20;;;3.00;99.90;;;;;;4870804;29;20727;-75
2023/03/30 02:56:47;;;;;;;0.20;0.20;;;2.80;99.90;;;;;;4872765;29;20037;-75
2023/03/30 02:59:20;;;;;;;0.10;0.10;;;2.90;99.90;;;;;;4872607;29;20747;-75
2023/03/30 03:01:57;;;;;;;0.20;0.20;;;2.80;99.90;;;;;;4865127;29;20182;-74
2023/03/30 03:04:24;;;;;;;0.15;0.15;;;2.80;99.90;;;;;;4880872;29;20033;-74
2023/03/30 03:06:51;;;;;;;0.20;0.20;;;2.80;99.90;;;;;;4865669;29;20699;-74
2023/03/30 03:09:19;;;;;;;0.63;0.63;;;2.80;99.90;;;;;;4867782;29;20041;-74
2023/03/30 03:11:45;;;;;;;0.10;0.10;;;2.70;99.90;;;;;;4865017;29;20030;-74
2023/03/30 03:14:11;;;;;;;0.40;0.40;;;2.60;99.90;;;;;;4872807;29;20024;-74
2023/03/30 03:16:37;;;;;;;0.20;0.20;;;2.60;99.90;;;;;;4923139;29;20116;-74
2023/03/30 03:19:03;;;;;;;0.20;0.20;;;2.60;99.90;;;;;;4920645;29;20031;-74
2023/03/30 03:21:29;;;;;;;0.20;0.20;;;2.50;99.90;;;;;;4925794;28;20051;-75
2023/03/30 03:23:55;;;;;;;0.20;0.20;;;2.60;99.90;;;;;;4985852;28;20100;-74
2023/03/30 03:26:22;;;;;;;0.20;0.20;;;2.60;99.90;;;;;;5003274;28;20025;-75
2023/03/30 03:28:48;;;;;;;0.20;0.20;;;2.60;99.90;;;;;;5004599;28;20085;-74
2023/03/30 03:31:14;;;;;;;0.30;0.30;;;3.80;99.90;;;;;;5003380;28;20291;-76
2023/03/30 03:33:41;;;;;;;0.20;0.20;;;2.50;99.90;;;;;;5005102;28;20026;-76
2023/03/30 03:36:07;;;;;;;0.10;0.10;;;2.50;99.90;;;;;;5007107;28;20034;-74
2023/03/30 03:38:33;;;;;;;0.20;0.20;;;2.50;99.90;;;;;;5005607;28;20041;-73
2023/03/30 03:40:59;;;;;;;0.10;0.10;;;2.40;99.90;;;;;;5008957;28;20026;-74
2023/03/30 03:43:25;;;;;;;0.20;0.20;;;;;;;;;;5008102;28;20535;-73
2023/03/30 03:45:52;;;;;;;0.13;0.13;;;2.40;99.90;;;;;;5007262;28;20026;-74
2023/03/30 03:48:19;;;;;;;0.20;0.20;;;2.40;99.90;;;;;;5006182;28;20060;-74
2023/03/30 03:50:51;;;;;;;0.20;0.20;;;2.40;99.90;;;;;;5007295;28;20057;-74
2023/03/30 03:53:18;;;;;;;0.20;0.20;;;2.30;99.90;;;;;;5005863;28;20523;-74
2023/03/30 03:55:45;;;;;;;0.10;0.10;;;2.30;99.90;;;;;;5005904;28;20025;-74
2023/03/30 03:58:11;;;;;;;0.20;0.20;;;2.30;99.90;;;;;;5005352;28;20531;-74
2023/03/30 04:00:37;;;;;;;0.20;0.20;;;2.30;99.90;;;;;;4990361;28;20049;-74
2023/03/30 04:03:04;;;;;;;0.30;0.30;;;2.30;99.90;;;;;;5005132;28;20461;-74
2023/03/30 04:05:30;;;;;;;0.20;0.20;;;2.30;99.90;;;;;;5004830;28;20025;-74
2023/03/30 04:07:56;;;;;;;0.20;0.20;;;2.30;99.90;;;;;;5005378;28;20040;-75
2023/03/30 04:10:22;;;;;;;0.20;0.20;;;2.20;99.90;;;;;;5007954;28;20409;-74
2023/03/30 04:12:48;;;;;;;0.20;0.20;;;2.30;99.90;;;;;;5010843;28;20215;-75
2023/03/30 04:15:14;;;;;;;0.10;0.10;;;2.30;99.90;;;;;;5011569;28;20033;-74
2023/03/30 04:17:39;;;;;;;0.20;0.20;;;2.30;99.90;;;;;;5013910;28;20657;-74
2023/03/30 04:20:11;;;;;;;0.20;0.20;;;2.30;99.90;;;;;;5016621;28;20129;-74
2023/03/30 04:22:42;;;;;;;0.20;0.20;;;2.30;99.90;;;;;;4987518;28;20579;-74
2023/03/30 04:25:10;;;;;;;0.10;0.10;;;2.30;99.90;;;;;;5009926;28;20052;-74
2023/03/30 04:27:36;;;;;;;0.10;0.10;;;2.30;99.90;;;;;;5006966;28;20034;-74
2023/03/30 04:30:06;;;;;;;0.17;0.17;;;2.30;99.90;;;;;;4998657;28;20212;-74
2023/03/30 04:32:37;;;;;;;0.20;0.20;;;2.30;99.90;;;;;;5015191;28;20040;-74
2023/03/30 04:35:05;;;;;;;0.20;0.20;;;2.30;99.90;;;;;;5014701;28;20069;-76
2023/03/30 04:37:31;;;;;;;0.20;0.20;;;2.30;99.90;;;;;;5013127;28;20029;-75
2023/03/30 04:39:58;;;;;;;0.10;0.10;;;2.20;99.90;;;;;;5007101;28;20085;-74
2023/03/30 04:42:29;;;;;;;0.25;0.25;;;2.20;99.90;;;;;;5010314;28;20324;-75
2023/03/30 04:45:02;;;;;;;0.10;0.10;;;2.30;99.90;;;;;;4993743;28;20481;-77
2023/03/30 04:47:29;;;;;;;0.20;0.20;;;2.30;99.90;;;;;;4991248;28;20303;-74
2023/03/30 04:49:54;;;;;;;0.20;0.20;;;2.30;99.90;;;;;;5007133;28;20018;-74
2023/03/30 04:52:21;;;;;;;0.90;0.90;;;2.20;99.90;;;;;;5008685;28;20114;-74
2023/03/30 04:54:47;;;;;;;0.20;0.20;;;2.20;99.90;;;;;;4989862;28;20312;-74
2023/03/30 04:57:14;;;;;;;0.20;0.20;;;2.20;99.90;;;;;;5010164;28;20644;-74
2023/03/30 04:59:41;;;;;;;0.10;0.10;;;2.10;99.90;;;;;;5008859;28;20452;-73
2023/03/30 05:02:08;;;;;;;0.20;0.20;;;3.80;99.90;;;;;;5006712;28;20030;-75
2023/03/30 05:04:34;;;;;;;0.20;0.20;;;2.20;99.90;;;;;;4986058;28;20028;-73
2023/03/30 05:07:01;;;;;;;0.20;0.20;;;2.30;99.90;;;;;;4987315;28;20029;-73
2023/03/30 05:09:27;;;;;;;0.20;0.20;;;2.30;99.90;;;;;;5005481;28;20114;-73
2023/03/30 05:11:53;;;;;;;0.20;0.20;;;2.30;99.90;;;;;;5004856;28;20235;-74
2023/03/30 05:14:19;;;;;;;0.17;0.17;;;2.40;99.90;;;;;;5004018;28;20385;-74
2023/03/30 05:16:44;;;;;;;0.20;0.20;;;2.40;99.90;;;;;;5007362;28;20045;-74
2023/03/30 05:19:10;;;;;;;1.63;1.63;;;2.50;99.90;;;;;;5004077;28;20018;-74
2023/03/30 05:21:36;;;;;;;0.20;0.20;;;2.50;99.90;;;;;;5005951;28;20018;-74
2023/03/30 05:24:02;;;;;;;0.63;0.63;;;2.60;99.90;;;;;;5003870;28;20568;-74
2023/03/30 05:26:28;;;;;;;0.20;0.20;;;2.60;99.90;;;;;;5002893;28;20143;-73
2023/03/30 05:28:55;;;;;;;0.20;0.20;;;2.70;99.90;;;;;;5004375;28;20096;-74
2023/03/30 05:31:21;;;;;;;0.20;0.20;;;2.80;99.90;;;;;;5006437;28;20049;-74
2023/03/30 05:33:46;;;;;;;0.20;0.20;;;2.70;99.90;;;;;;5008381;28;20520;-73
2023/03/30 05:36:13;;;;;;;0.20;0.20;;;2.90;99.90;;;;;;5004686;28;20424;-74
2023/03/30 05:38:39;;;;;;;0.20;0.20;;;2.90;99.90;;;;;;4987293;28;20085;-74
2023/03/30 05:41:05;;;;;;;0.20;0.20;;;2.80;99.90;;;;;;5003768;28;20026;-74
2023/03/30 05:43:32;;;;;;;14.60;13.15;;;3.10;99.90;;;;;;5006174;28;20141;-77
2023/03/30 05:45:59;;;;;;;0.20;0.20;;;3.20;99.90;;;;;;4987287;28;20040;-74
2023/03/30 05:48:25;;;;;;;0.20;0.20;;;3.20;99.90;;;;;;5004365;28;20045;-74
2023/03/30 05:50:51;;;;;;;0.35;0.35;;;3.40;99.90;;;;;;5004454;28;20034;-74
2023/03/30 05:53:16;;;;;;;0.20;0.20;;;3.40;99.90;;;;;;5000408;28;20025;-74
2023/03/30 05:55:45;;;;;;;0.20;0.20;;;3.60;99.90;;;;;;4982960;28;20430;-74
2023/03/30 05:58:12;;;;;;;0.10;0.10;;;3.70;99.90;;;;;;5001477;28;20026;-75
2023/03/30 06:00:40;;;;;;;0.15;0.15;;;3.70;99.90;;;;;;5004589;28;20342;-74
2023/03/30 06:03:06;;;;;;;0.20;0.20;;;2.10;99.90;;;;;;5004908;28;20021;-74
2023/03/30 06:05:34;;;;;;;0.13;0.13;;;3.90;99.90;;;;;;5005208;28;20058;-74
2023/03/30 06:08:03;;;;;;;0.13;0.13;;;3.90;99.90;;;;;;5002890;28;20120;-75
2023/03/30 06:10:28;;;;;;;0.20;0.20;;;4.00;99.90;;;;;;4988590;28;20030;-74
2023/03/30 06:12:54;;;;;;;0.20;0.20;;;4.10;99.90;;;;;;5003635;28;20432;-74
2023/03/30 06:15:21;;;;;;;0.10;0.10;;;4.30;99.90;;;;;;4992291;28;20034;-73
2023/03/30 06:17:47;;;;;;;0.20;0.20;;;;;;;;;;5008406;28;20076;-74
2023/03/30 06:20:13;;;;;;;0.20;0.20;;;4.60;99.90;;;;;;5027081;28;20034;-74
2023/03/30 06:22:40;;;;;;;0.13;0.13;;;4.60;99.90;;;;;;5024554;28;20554;-74
2023/03/30 06:25:08;;;;;;;0.20;0.20;;;4.70;99.90;;;;;;5009141;28;20017;-74
2023/03/30 06:27:34;;;;;;;0.10;0.10;;;4.80;99.90;;;;;;5007726;28;20034;-74
2023/03/30 06:30:00;;;;;;;2.65;2.55;;;4.90;99.90;;;;;;5023592;28;20214;-74
2023/03/30 06:32:26;;;;;;;0.20;0.20;;;5.10;99.90;;;;;;5023203;28;20389;-74
2023/03/30 06:34:52;;;;;;;8.13;7.70;;;5.20;99.90;;;;;;5022935;28;20176;-74
2023/03/30 06:37:20;;;;;;;0.10;0.10;;;5.20;99.90;;;;;;5023644;28;20037;-74
2023/03/30 06:39:46;;;;;;;0.60;0.60;;;5.30;99.90;;;;;;5023317;28;20022;-74
2023/03/30 06:42:12;;;;;;;0.10;0.10;;;5.50;99.90;;;;;;5025562;28;20040;-74
2023/03/30 06:44:41;;;;;;;0.75;0.75;;;5.50;99.90;;;;;;5023792;28;20464;-74
2023/03/30 06:47:06;;;;;;;0.10;0.10;;;5.70;99.90;;;;;;5021426;28;20022;-74
2023/03/30 06:49:32;;;;;;;0.10;0.10;;;5.70;99.90;;;;;;5005523;28;20033;-74
2023/03/30 06:51:58;;;;;;;0.10;0.10;;;5.80;99.90;;;;;;5022748;28;20033;-76
2023/03/30 06:54:24;;;;;;;0.17;0.17;;;5.80;99.90;;;;;;5023969;28;20025;-74
2023/03/30 06:56:51;;;;;;;0.20;0.20;;;5.90;99.90;;;;;;5024054;28;20021;-74
2023/03/30 06:59:17;;;;;;;0.10;0.10;;;5.80;99.90;;;;;;5025709;28;20032;-73
2023/03/30 07:01:44;;;;;;;0.10;0.10;;;5.90;99.90;;;;;;5027271;28;20237;-74
2023/03/30 07:04:10;;;;;;;0.10;0.10;;;6.10;99.90;;;;;;5027723;28;20097;-73
2023/03/30 07:06:36;;;;;;;0.10;0.10;;;6.20;99.90;;;;;;5024867;28;20299;-73
2023/03/30 07:09:04;;;;;;;0.10;0.10;;;6.30;99.90;;;;;;5026378;28;20103;-74
2023/03/30 07:11:30;;;;;;;0.20;0.20;;;6.60;99.90;;;;;;5026078;28;20045;-74
2023/03/30 07:13:57;;;;;;;0.10;0.10;;;6.60;99.90;;;;;;5026679;28;20090;-74
2023/03/30 07:16:24;;;;;;;0.10;0.10;;;6.80;99.90;;;;;;5027124;28;20115;-74
2023/03/30 07:18:51;;;;;;;0.57;0.57;;;7.10;99.90;;;;;;5026791;28;20052;-74
2023/03/30 07:21:17;;;;;;;0.05;0.05;;;7.10;99.90;;;;;;5010560;28;20034;-73
2023/03/30 07:23:43;;;;;;;0.00;0.00;;;7.70;99.90;;;;;;5027308;28;20025;-73
2023/03/30 07:26:09;;;;;;;0.00;0.00;;;7.70;99.90;;;;;;5027894;28;20064;-74
2023/03/30 07:28:39;;;;;;;0.00;0.00;;;7.70;99.90;;;;;;5027128;28;20041;-74
2023/03/30 07:31:09;;;;;;;0.10;0.10;;;7.90;99.90;;;;;;5027977;28;20044;-74
2023/03/30 07:33:35;;;;;;;0.70;0.70;;;8.20;99.90;;;;;;5027162;28;20022;-74
2023/03/30 07:36:02;;;;;;;0.00;0.00;;;8.40;99.90;;;;;;5029787;28;20100;-73
2023/03/30 07:38:28;;;;;;;0.00;0.00;;;8.60;99.90;;;;;;5010285;28;20496;-75
2023/03/30 07:40:53;;;;;;;0.00;0.00;;;8.90;99.30;;;;;;5028632;28;20030;-75
2023/03/30 07:43:19;;;;;;;0.00;0.00;;;9.10;97.90;;;;;;5029235;28;20420;-77
2023/03/30 07:45:45;;;;;;;10.35;9.90;;;9.30;97.20;;;;;;5029092;28;20397;-75
2023/03/30 07:48:11;;;;;;;0.03;0.03;;;;;;;;;;5027599;28;20200;-73
2023/03/30 07:50:37;;;;;;;0.00;0.00;;;9.70;94.00;;;;;;5029378;28;20381;-76
2023/03/30 07:53:03;;;;;;;1.05;1.05;;;9.80;94.00;;;;;;5031265;28;20665;-75
2023/03/30 07:55:28;;;;;;;0.00;0.00;;;10.00;93.20;;;;;;5031375;28;20033;-75
2023/03/30 07:57:56;;;;;;;0.00;0.00;;;10.10;92.30;;;;;;5028672;28;20072;-75
2023/03/30 08:00:23;;;;;;;0.00;0.00;;;10.30;92.10;;;;;;5028461;28;20030;-75
2023/03/30 08:02:49;;;;;;;0.00;0.00;;;10.50;91.60;;;;;;5027904;28;20087;-76
2023/03/30 08:05:16;;;;;;;0.30;0.30;;;10.50;91.30;;;;;;5028551;28;20021;-76
2023/03/30 08:07:43;;;;;;;0.10;0.10;;;10.50;91.30;;;;;;5027973;28;20037;-76
2023/03/30 08:10:10;;;;;;;22.02;9.52;;;10.50;90.20;;;;;;5029507;28;20017;-77
2023/03/30 08:12:35;;;;;;;0.08;0.08;;;10.70;90.60;;;;;;5009417;28;20026;-76
2023/03/30 08:15:02;;;;;;;0.10;0.10;;;11.00;88.30;;;;;;5029686;28;20113;-77
2023/03/30 08:17:28;;;;;;;0.00;0.00;;;11.10;90.00;;;;;;5026372;28;20564;-76
2023/03/30 08:19:55;;;;;;;0.10;0.10;;;11.20;89.90;;;;;;5029954;28;20049;-74
2023/03/30 08:22:21;;;;;;;0.10;0.10;;;11.40;88.40;;;;;;5008489;28;20357;-76
2023/03/30 08:24:47;;;;;;;0.00;0.00;;;11.50;86.40;;;;;;5028445;28;20075;-77
2023/03/30 08:27:13;;;;;;;0.20;0.20;;;11.80;83.80;;;;;;5027144;28;20335;-77
2023/03/30 08:29:39;;;;;;;0.30;0.30;;;11.90;82.50;;;;;;5026916;28;20323;-77
2023/03/30 08:32:05;;;;;;;0.10;0.10;;;12.20;80.60;;;;;;5009171;28;20025;-76
2023/03/30 08:34:32;;;;;;;0.00;0.00;;;12.30;79.30;;;;;;5006626;28;20056;-77
2023/03/30 08:36:58;;;;;;;0.10;0.10;;;12.60;78.40;;;;;;5021034;28;20343;-76
2023/03/30 08:39:24;;;;;;;0.10;0.10;;;12.70;78.40;;;;;;5018865;28;20060;-79
2023/03/30 08:42:01;;;;;;;0.10;0.10;;;13.00;77.70;;;;;;5019367;28;20037;-77
2023/03/30 08:44:37;;;;;;;0.10;0.10;;;13.10;76.50;;;;;;5019069;28;20091;-76
2023/03/30 08:47:08;;;;;;;0.10;0.10;;;13.10;74.60;;;;;;5000931;28;20033;-78
2023/03/30 08:49:41;;;;;;;0.10;0.10;;;13.20;74.30;;;;;;5019060;28;20025;-80
2023/03/30 08:52:13;;;;;;;0.10;0.10;;;11.90;74.20;;;;;;5018647;28;20037;-78
2023/03/30 08:54:38;;;;;;;0.10;0.10;;;13.30;74.40;;;;;;5018568;28;20129;-76
2023/03/30 08:57:22;;;;;;;0.32;0.32;;;13.30;74.10;;;;;;5019218;28;20037;-76
2023/03/30 08:59:57;;;;;;;0.10;0.10;;;13.40;74.30;;;;;;5019583;28;20028;-77
2023/03/30 09:02:30;;;;;;;0.43;0.43;;;13.50;72.80;;;;;;5019489;28;20087;-74
2023/03/30 09:05:07;;;;;;;0.10;0.10;;;13.70;73.40;;;;;;5019580;28;20064;-75
2023/03/30 09:07:38;;;;;;;0.30;0.30;;;13.90;72.50;;;;;;5018736;28;20157;-76
2023/03/30 09:10:11;;;;;;;0.10;0.10;;;13.90;71.80;;;;;;5019819;28;20225;-78
2023/03/30 09:12:40;;;;;;;0.20;0.20;;;13.80;71.20;;;;;;5020419;28;20096;-86
2023/03/30 09:15:20;;;;;;;0.10;0.10;;;15.10;72.90;;;;;;5020350;28;20045;-76
2023/03/30 09:18:28;;;;;;;0.20;0.20;;;13.90;71.30;;;;;;5019878;28;20048;-79
2023/03/30 09:20:56;;;;;;;0.10;0.10;;;13.80;71.30;;;;;;4958001;28;20030;-75
2023/03/30 09:23:23;;;;;;;0.10;0.10;;;14.50;72.10;;;;;;4957618;28;20025;-79
2023/03/30 09:25:58;;;;;;;0.10;0.10;;;14.70;70.40;;;;;;4957122;28;20111;-77
2023/03/30 09:28:31;;;;;;;0.10;0.10;;;14.70;69.60;;;;;;4957300;28;20596;-75
2023/03/30 09:30:57;;;;;;;0.10;0.10;;;14.80;68.60;;;;;;4957199;28;20445;-74
2023/03/30 09:34:00;;;;;;;0.10;0.10;;;14.70;69.60;;;;;;4957689;28;20027;-74
2023/03/30 09:36:30;;;;;;;0.10;0.10;;;14.90;69.40;;;;;;4957874;28;20045;-74
2023/03/30 09:38:56;;;;;;;0.35;0.35;;;14.90;68.90;;;;;;4957207;28;20035;-77
2023/03/30 09:41:40;;;;;;;0.10;0.10;;;16.70;69.70;;;;;;4956736;28;20119;-75
2023/03/30 09:44:18;;;;;;;0.30;0.30;;;15.30;67.30;;;;;;4957243;28;20027;-76
2023/03/30 09:46:43;;;;;;;0.45;0.45;;;15.40;67.30;;;;;;4940879;28;20047;-74
2023/03/30 09:49:14;;;;;;;1.75;1.65;;;15.30;66.90;;;;;;4941376;28;20071;-73
2023/03/30 09:52:05;;;;;;;0.10;0.10;;;15.40;67.20;;;;;;4956847;28;20043;-74
2023/03/30 09:54:40;;;;;;;0.20;0.20;;;15.80;68.70;;;;;;4957289;28;20023;-76
2023/03/30 09:57:23;;;;;;;0.20;0.20;;;15.60;67.80;;;;;;4986536;28;20033;-80
2023/03/30 09:59:49;;;;;;;0.20;0.20;;;15.80;67.10;;;;;;5018413;28;20013;-76
2023/03/30 10:02:18;;;;;;;0.10;0.10;;;15.80;67.20;;;;;;5001166;28;20202;-74
2023/03/30 10:04:51;;;;;;;0.10;0.10;;;16.00;68.80;;;;;;5018398;28;20025;-76
2023/03/30 10:07:29;;;;;;;1.58;1.48;;;16.00;65.80;;;;;;5000948;28;20121;-81
2023/03/30 10:09:57;;;;;;;0.20;0.20;;;15.80;66.60;;;;;;5018095;28;20073;-77
2023/03/30 10:12:25;;;;;;;0.15;0.15;;;15.90;68.70;;;;;;5019015;28;20056;-74
2023/03/30 10:15:01;;;;;;;0.10;0.10;;;16.10;67.80;;;;;;5018185;28;20038;-80
2023/03/30 10:17:27;;;;;;;0.17;0.17;;;16.50;66.90;;;;;;5018311;28;20063;-74
2023/03/30 10:20:13;;;;;;;0.28;0.28;;;16.00;66.90;;;;;;5018582;28;20573;-78
2023/03/30 10:23:13;;;;;;;0.15;0.15;;;16.00;67.20;;;;;;5018815;28;20080;-75
2023/03/30 10:25:41;;;;;;;0.10;0.10;;;16.20;66.40;;;;;;4956821;28;20058;-78
2023/03/30 10:28:20;;;;;;;0.10;0.10;;;16.10;66.40;;;;;;4956967;28;20046;-79
2023/03/30 10:30:51;;;;;;;0.10;0.10;;;16.00;66.40;;;;;;4957094;28;20296;-73
2023/03/30 10:33:17;;;;;;;0.10;0.10;;;16.30;66.20;;;;;;4960604;28;20067;-73
2023/03/30 10:35:46;;;;;;;0.10;0.10;;;16.40;65.80;;;;;;4961109;28;20054;-75
2023/03/30 10:38:13;;;;;;;0.20;0.20;;;16.40;65.30;;;;;;4945070;28;20026;-76
2023/03/30 10:40:43;;;;;;;0.10;0.10;;;16.30;64.90;;;;;;4960773;28;20050;-75
2023/03/30 10:43:19;;;;;;;0.10;0.10;;;16.20;64.80;;;;;;4960624;28;20038;-75
2023/03/30 10:45:51;;;;;;;0.10;0.10;;;16.30;64.90;;;;;;4960410;28;20015;-76
2023/03/30 10:48:41;;;;;;;0.10;0.10;;;16.30;64.80;;;;;;4960589;28;20043;-74
2023/03/30 10:51:33;;;;;;;0.10;0.10;;;16.50;64.70;;;;;;4960316;28;20034;-74
2023/03/30 10:54:21;;;;;;;0.10;0.10;;;16.60;64.60;;;;;;4960648;28;20149;-75
2023/03/30 10:57:07;;;;;;;0.20;0.20;;;16.60;64.20;;;;;;4960216;28;20178;-78
2023/03/30 10:59:52;;;;;;;0.15;0.15;;;16.70;64.20;;;;;;4960816;28;20088;-75
2023/03/30 11:02:23;;;;;;;0.10;0.10;;;16.90;64.20;;;;;;4996876;28;20065;-74
2023/03/30 11:05:02;;;;;;;0.10;0.10;;;17.00;63.70;;;;;;5021162;28;20028;-76
2023/03/30 11:07:39;;;;;;;0.10;0.10;;;17.20;63.80;;;;;;5021228;28;20044;-74
2023/03/30 11:10:30;;;;;;;0.10;0.10;;;17.50;63.00;;;;;;5021887;28;20036;-74
2023/03/30 11:13:04;;;;;;;0.10;0.10;;;17.80;63.30;;;;;;5020952;28;20010;-75
2023/03/30 11:15:45;;;;;;;0.10;0.10;;;18.00;62.50;;;;;;5021399;28;20049;-75
2023/03/30 11:18:20;;;;;;;0.10;0.10;;;18.10;61.90;;;;;;5021203;28;20762;-75
2023/03/30 11:21:03;;;;;;;0.10;0.10;;;16.90;61.20;;;;;;5020844;28;20075;-77
2023/03/30 11:23:53;;;;;;;0.10;0.10;;;18.20;61.00;;;;;;5021143;28;20014;-75
2023/03/30 11:26:28;;;;;;;0.10;0.10;;;18.20;61.00;;;;;;5020560;28;20104;-76
2023/03/30 11:29:05;;;;;;;0.10;0.10;;;18.30;61.20;;;;;;5021124;28;20034;-76
2023/03/30 11:32:05;;;;;;;0.10;0.10;;;18.70;61.60;;;;;;5021322;28;20010;-76
2023/03/30 11:35:09;;;;;;;16.88;1.63;;;18.70;59.70;;;;;;5020932;28;20664;-76
2023/03/30 11:37:54;;;;;;;0.10;0.10;;;18.90;60.30;;;;;;5021720;28;20029;-77
2023/03/30 11:40:26;;;;;;;0.10;0.10;;;19.30;59.80;;;;;;5021859;28;20026;-75
2023/03/30 11:42:52;;;;;;;0.10;0.10;;;19.20;59.40;;;;;;5020158;28;20032;-76
2023/03/30 11:45:35;;;;;;;0.10;0.10;;;20.50;59.30;;;;;;5020585;28;20024;-81
2023/03/30 11:48:35;;;;;;;0.10;0.10;;;19.40;58.90;;;;;;5020662;28;20033;-76
2023/03/30 11:51:12;;;;;;;0.10;0.10;;;19.50;57.90;;;;;;5021150;28;20021;-81
2023/03/30 11:53:59;;;;;;;0.10;0.10;;;19.80;58.20;;;;;;5021140;28;20021;-75
2023/03/30 11:56:47;;;;;;;0.88;0.88;;;20.00;57.50;;;;;;5022930;28;20097;-76
2023/03/30 11:59:22;;;;;;;0.08;0.08;;;20.10;57.10;;;;;;5022755;28;20045;-76
2023/03/30 12:02:25;;;;;;;0.10;0.10;;;20.30;56.60;;;;;;5022364;28;20028;-78
2023/03/30 12:05:08;;;;;;;0.10;0.10;;;19.60;56.20;;;;;;5022303;28;20664;-75
2023/03/30 12:07:57;;;;;;;0.10;0.10;;;20.40;57.30;;;;;;5020813;28;20027;-74
2023/03/30 12:10:32;;;;;;;0.30;0.30;;;20.40;56.60;;;;;;5009313;28;20041;-74
2023/03/30 12:13:00;;;;;;;0.10;0.10;;;20.30;56.60;;;;;;5021239;28;20175;-77
2023/03/30 12:16:01;;;;;;;0.10;0.10;;;20.10;56.90;;;;;;5019630;28;20484;-77
2023/03/30 12:18:56;;;;;;;0.10;0.10;;;20.30;56.70;;;;;;5020789;28;20025;-73
2023/03/30 12:21:29;;;;;;;0.10;0.10;;;20.10;56.80;;;;;;5020724;28;20553;-74
2023/03/30 12:24:04;;;;;;;0.00;0.00;;;20.00;57.20;;;;;;5020416;28;20623;-74
2023/03/30 12:26:36;;;;;;;0.10;0.10;;;20.20;57.20;;;;;;5020669;28;20626;-74
2023/03/30 12:29:18;;;;;;;0.10;0.10;;;20.20;56.90;;;;;;5002605;28;20033;-74
2023/03/30 12:32:06;;;;;;;0.10;0.10;;;20.30;56.90;;;;;;5020480;28;20053;-81
2023/03/30 12:34:36;;;;;;;0.10;0.10;;;20.40;56.30;;;;;;5019895;28;20274;-78
2023/03/30 12:37:27;;;;;;;0.10;0.10;;;20.40;56.40;;;;;;5020143;28;20658;-77
2023/03/30 12:40:13;;;;;;;0.10;0.10;;;20.60;56.30;;;;;;5020306;28;20104;-77
2023/03/30 12:43:00;;;;;;;0.10;0.10;;;20.70;55.70;;;;;;5020918;28;20029;-77
2023/03/30 12:45:34;;;;;;;5.63;4.13;;;20.70;55.60;;;;;;5001605;28;20053;-74
2023/03/30 12:48:41;;;;;;;0.10;0.10;;;20.60;55.40;;;;;;5019040;28;20072;-77
2023/03/30 12:51:31;;;;;;;0.15;0.15;;;20.60;55.30;;;;;;5006332;28;20061;-76
2023/03/30 12:54:00;;;;;;;0.10;0.10;;;20.50;55.80;;;;;;5020115;28;20018;-75
2023/03/30 12:56:57;;;;;;;0.10;0.10;;;20.80;56.00;;;;;;5018037;28;20665;-77
2023/03/30 12:59:32;;;;;;;0.10;0.10;;;20.90;55.30;;;;;;5019277;28;20113;-77
2023/03/30 13:02:33;;;;;;;0.10;0.10;;;21.20;54.90;;;;;;5019601;28;20171;-76
2023/03/30 13:04:59;;;;;;;0.20;0.20;;;21.00;54.80;;;;;;4958289;28;20202;-77
2023/03/30 13:07:30;;;;;;;0.20;0.20;;;20.80;55.20;;;;;;4958304;28;20750;-77
2023/03/30 13:10:23;;;;;;;0.20;0.20;;;22.40;56.00;;;;;;4958411;28;20031;-76
2023/03/30 13:12:49;;;;;;;0.10;0.10;;;21.00;55.20;;;;;;4957962;28;20019;-75
2023/03/30 13:15:15;;;;;;;0.10;0.10;;;21.40;54.50;;;;;;4956731;28;20687;-74
2023/03/30 13:18:01;;;;;;;0.50;0.50;;;21.40;55.00;;;;;;4957014;28;20042;-73
2023/03/30 13:20:33;;;;;;;0.10;0.10;;;21.70;54.40;;;;;;4958064;28;20027;-74
2023/03/30 13:23:00;;;;;;;0.00;0.00;;;21.50;54.30;;;;;;4958083;28;20045;-75